KDDC/DDC METAR and TAF weather

Enter ICAO airport designator
Station Type Date Time Source
KDDC METAR 2018/10/19 15:52 UTC NOAA

KDDC 191552Z AUTO 31011KT 10SM CLR 14/08 A3016 RMK AO2 SLP204 T01390078


Station Type Date Time Source
KDDC Decoded METAR 2018/10/19 15:52 UTC NOAA

DODGE CITY REGIONAL AIRPORT, KS, United States (KDDC) 37-46N 99-58W 789M
Oct 19, 2018 - 11:52 AM EDT / 2018.10.19 1552 UTC
Wind: from the NW (310 degrees) at 13 MPH (11 KT):0
Visibility: 10 mile(s):0
Sky conditions: clear
Temperature: 57.0 F (13.9 C)
Dew Point: 46.0 F (7.8 C)
Relative Humidity: 66%
Pressure (altimeter): 30.16 in. Hg (1021 hPa)
ob: KDDC 191552Z AUTO 31011KT 10SM CLR 14/08 A3016 RMK AO2 SLP204 T01390078
cycle: 16

Station Type Date Time Source
KDDC TAF 2018/10/19 14:34 UTC NOAA

TAF
AMD KDDC 191332Z 1914/2012 26010KT P6SM SKC
FM191900 35012G20KT P6SM SKC
FM200800 34007KT P6SM SKC


Example: see airport list